createdAt,value
2019-02-23T00:01:36.707Z,14.13
2019-02-23T00:04:07.457Z,17.00
2019-02-23T00:06:38.090Z,13.17
2019-02-23T00:09:10.258Z,14.47
2019-02-23T00:11:41.177Z,8.80
2019-02-23T00:14:12.171Z,12.37
2019-02-23T00:16:44.120Z,13.57
2019-02-23T00:19:24.531Z,9.70
2019-02-23T00:21:47.134Z,8.97
2019-02-23T00:24:17.993Z,7.67
2019-02-23T00:26:49.127Z,14.37
2019-02-23T00:29:20.155Z,10.83
2019-02-23T00:31:50.776Z,16.00
2019-02-23T00:34:21.847Z,11.13
2019-02-23T00:36:52.775Z,12.73
2019-02-23T00:39:23.535Z,8.97
2019-02-23T00:41:54.110Z,12.27
2019-02-23T00:44:25.402Z,13.03
2019-02-23T00:46:56.280Z,10.33
2019-02-23T00:49:35.945Z,11.53
2019-02-23T00:51:59.969Z,8.30
2019-02-23T00:54:31.026Z,11.47
2019-02-23T00:57:02.054Z,9.17
2019-02-23T00:59:33.002Z,15.63
2019-02-23T01:02:03.614Z,12.17
2019-02-23T01:04:34.360Z,12.53
2019-02-23T01:07:05.116Z,10.57
2019-02-23T01:09:35.822Z,13.30
2019-02-23T01:12:06.696Z,10.73
2019-02-23T01:14:37.542Z,15.57
2019-02-23T01:17:08.369Z,14.77
2019-02-23T01:19:47.417Z,14.60
2019-02-23T01:22:11.939Z,10.00
2019-02-23T01:24:42.911Z,15.53
2019-02-23T01:27:13.735Z,8.60
2019-02-23T01:29:44.499Z,10.40
2019-02-23T01:32:15.027Z,9.30
2019-02-23T01:34:45.712Z,9.37
2019-02-23T01:37:16.597Z,14.37
2019-02-23T01:39:47.206Z,13.80
2019-02-23T01:42:18.126Z,12.53
2019-02-23T01:44:49.312Z,12.37
2019-02-23T01:47:20.207Z,16.97
2019-02-23T01:49:58.601Z,10.77
2019-02-23T01:52:23.256Z,12.27
2019-02-23T01:54:54.884Z,10.83
2019-02-23T01:57:25.745Z,11.60
2019-02-23T01:59:56.512Z,12.80
2019-02-23T02:02:27.194Z,9.80
2019-02-23T02:04:58.012Z,8.07
2019-02-23T02:07:29.091Z,12.90
2019-02-23T02:10:00.018Z,11.07
2019-02-23T02:12:30.764Z,11.47
2019-02-23T02:15:03.066Z,7.67
2019-02-23T02:17:34.676Z,10.67
2019-02-23T02:20:10.961Z,10.10
2019-02-23T02:22:38.551Z,10.00
2019-02-23T02:25:10.182Z,7.43
2019-02-23T02:27:41.369Z,12.37
2019-02-23T02:30:12.812Z,9.30
2019-02-23T02:32:43.589Z,11.57
2019-02-23T02:35:14.270Z,12.60
2019-02-23T02:37:45.253Z,7.97
2019-02-23T02:40:16.334Z,10.20
2019-02-23T02:42:47.137Z,13.23
2019-02-23T02:45:18.465Z,10.40
2019-02-23T02:47:49.143Z,14.20
2019-02-23T02:50:24.253Z,12.37
2019-02-23T02:52:52.469Z,13.13
2019-02-23T02:55:23.353Z,9.07
2019-02-23T02:57:55.288Z,8.83
2019-02-23T03:00:25.963Z,11.27
2019-02-23T03:02:56.739Z,13.60
2019-02-23T03:05:27.588Z,13.93
2019-02-23T03:07:58.312Z,7.97
2019-02-23T03:10:29.455Z,16.73
2019-02-23T03:13:00.244Z,10.13
2019-02-23T03:15:31.282Z,18.13
2019-02-23T03:18:02.090Z,12.70
2019-02-23T03:20:36.655Z,10.47
2019-02-23T03:23:05.276Z,16.17
2019-02-23T03:25:36.574Z,10.83
2019-02-23T03:28:07.677Z,21.60
2019-02-23T03:30:38.529Z,9.23
2019-02-23T03:33:09.422Z,10.37
2019-02-23T03:35:40.350Z,8.87
2019-02-23T03:38:10.946Z,15.50
2019-02-23T03:40:41.684Z,10.40
2019-02-23T03:43:12.721Z,11.80
2019-02-23T03:45:44.166Z,12.13
2019-02-23T03:48:15.059Z,10.03
2019-02-23T03:50:49.474Z,16.40
2019-02-23T03:53:19.289Z,9.50
2019-02-23T03:55:50.261Z,12.87
2019-02-23T03:58:21.528Z,9.60
2019-02-23T04:00:52.265Z,13.27
2019-02-23T04:03:23.050Z,9.47
2019-02-23T04:05:53.933Z,11.47
2019-02-23T04:08:24.644Z,11.53
2019-02-23T04:10:55.635Z,11.97
2019-02-23T04:13:26.189Z,13.27
2019-02-23T04:15:57.711Z,13.57
2019-02-23T04:18:28.252Z,10.77
2019-02-23T04:21:01.967Z,11.27
2019-02-23T04:23:31.753Z,9.80
2019-02-23T04:26:02.373Z,11.20
2019-02-23T04:28:32.985Z,11.83
2019-02-23T04:31:03.749Z,14.07
2019-02-23T04:33:34.292Z,6.70
2019-02-23T04:36:05.386Z,14.73
2019-02-23T04:38:36.023Z,18.17
2019-02-23T04:41:06.936Z,10.23
2019-02-23T04:43:38.311Z,14.07
2019-02-23T04:46:09.150Z,14.90
2019-02-23T04:48:40.032Z,11.40
2019-02-23T04:51:14.237Z,16.77
2019-02-23T04:53:43.371Z,11.37
2019-02-23T04:56:14.898Z,10.40
2019-02-23T04:58:46.812Z,10.10
2019-02-23T05:01:17.442Z,18.63
2019-02-23T05:03:48.516Z,19.97
2019-02-23T05:06:19.624Z,13.00
2019-02-23T05:08:50.441Z,14.30
2019-02-23T05:11:21.444Z,18.03
2019-02-23T05:13:52.032Z,14.07
2019-02-23T05:16:23.035Z,21.73
2019-02-23T05:18:53.611Z,20.77
2019-02-23T05:21:26.881Z,18.13
2019-02-23T05:23:56.331Z,13.17
2019-02-23T05:26:26.830Z,10.17
2019-02-23T05:28:58.728Z,13.73
2019-02-23T05:31:29.822Z,20.73
2019-02-23T05:34:00.789Z,23.70
2019-02-23T05:36:31.525Z,40.43
2019-02-23T05:39:02.381Z,27.90
2019-02-23T05:41:34.493Z,16.63
2019-02-23T05:44:05.148Z,21.40
2019-02-23T05:46:35.923Z,27.00
2019-02-23T05:49:06.826Z,21.27
2019-02-23T05:51:38.931Z,29.00
2019-02-23T05:54:09.839Z,27.57
2019-02-23T05:56:40.639Z,15.20
2019-02-23T05:59:11.568Z,25.50
2019-02-23T06:01:42.572Z,20.93
2019-02-23T06:04:13.850Z,29.93
2019-02-23T06:06:44.943Z,19.83
2019-02-23T06:09:16.088Z,23.10
2019-02-23T06:11:47.155Z,13.93
2019-02-23T06:14:18.013Z,22.27
2019-02-23T06:16:50.124Z,28.63
2019-02-23T06:19:21.135Z,30.23
2019-02-23T06:21:54.076Z,39.27
2019-02-23T06:24:24.036Z,30.23
2019-02-23T06:26:54.966Z,38.47
2019-02-23T06:29:25.761Z,30.73
2019-02-23T06:31:56.661Z,34.17
2019-02-23T06:34:27.505Z,51.07
2019-02-23T06:36:58.404Z,44.43
2019-02-23T06:39:29.080Z,21.73
2019-02-23T06:41:59.945Z,26.37
2019-02-23T06:44:30.869Z,24.23
2019-02-23T06:47:01.606Z,22.17
2019-02-23T06:49:32.087Z,27.20
2019-02-23T06:52:04.588Z,36.80
2019-02-23T06:54:35.146Z,37.30
2019-02-23T06:57:05.967Z,34.53
2019-02-23T06:59:36.722Z,34.57
2019-02-23T07:02:07.749Z,38.80
2019-02-23T07:04:38.990Z,27.23
2019-02-23T07:07:09.943Z,33.37
2019-02-23T07:09:41.086Z,34.47
2019-02-23T07:12:11.955Z,36.20
2019-02-23T07:14:43.047Z,24.77
2019-02-23T07:17:14.542Z,25.50
2019-02-23T07:19:45.375Z,25.63
2019-02-23T07:22:16.080Z,22.37
2019-02-23T07:24:47.048Z,22.77
2019-02-23T07:27:18.000Z,21.57
2019-02-23T07:29:48.795Z,26.27
2019-02-23T07:32:19.589Z,25.87
2019-02-23T07:34:50.145Z,23.27
2019-02-23T07:37:21.012Z,25.47
2019-02-23T07:39:51.569Z,21.73
2019-02-23T07:42:22.282Z,15.73
2019-02-23T07:44:52.836Z,18.33
2019-02-23T07:47:23.372Z,21.50
2019-02-23T07:49:53.921Z,18.43
2019-02-23T07:52:26.549Z,24.30
2019-02-23T07:54:57.052Z,17.57
2019-02-23T07:57:27.788Z,17.77
2019-02-23T07:59:58.882Z,19.83
2019-02-23T08:02:30.603Z,19.83
2019-02-23T08:05:01.610Z,16.73
2019-02-23T08:07:32.320Z,13.97
2019-02-23T08:10:03.441Z,16.97
2019-02-23T08:12:34.425Z,16.67
2019-02-23T08:15:05.887Z,16.33
2019-02-23T08:17:37.105Z,21.23
2019-02-23T08:20:08.385Z,18.73
2019-02-23T08:22:39.057Z,15.57
2019-02-23T08:25:10.137Z,18.73
2019-02-23T08:27:40.771Z,18.97
2019-02-23T08:30:12.556Z,33.97
2019-02-23T08:32:43.454Z,16.13
2019-02-23T08:35:14.336Z,32.87
2019-02-23T08:37:45.014Z,17.30
2019-02-23T08:40:15.993Z,37.77
2019-02-23T08:42:47.123Z,19.17
2019-02-23T08:45:17.806Z,19.47
2019-02-23T08:47:48.372Z,24.67
2019-02-23T08:50:19.300Z,22.83
2019-02-23T08:52:50.639Z,19.03
2019-02-23T08:55:21.598Z,20.30
2019-02-23T08:57:52.533Z,19.27
2019-02-23T09:00:23.112Z,17.27
2019-02-23T09:02:54.580Z,13.27
2019-02-23T09:05:25.586Z,13.00
2019-02-23T09:07:56.414Z,15.80
2019-02-23T09:10:27.146Z,16.53
2019-02-23T09:12:57.745Z,16.77
2019-02-23T09:15:28.324Z,21.80
2019-02-23T09:17:58.999Z,16.60
2019-02-23T09:20:29.812Z,20.87
2019-02-23T09:23:00.672Z,43.37
2019-02-23T09:25:31.476Z,26.73
2019-02-23T09:28:02.471Z,20.27
2019-02-23T09:30:33.389Z,11.60
2019-02-23T09:33:04.069Z,17.90
2019-02-23T09:35:35.563Z,18.27
2019-02-23T09:38:06.796Z,19.52
2019-02-23T09:40:38.157Z,16.80
2019-02-23T09:43:09.456Z,10.13
2019-02-23T09:45:40.822Z,9.00
2019-02-23T09:48:11.838Z,11.00
2019-02-23T09:50:43.466Z,12.83
2019-02-23T09:53:14.228Z,19.40
2019-02-23T09:55:44.841Z,8.33
2019-02-23T09:58:16.603Z,15.00
2019-02-23T10:00:47.673Z,15.87
2019-02-23T10:03:18.392Z,8.40
2019-02-23T10:05:49.143Z,11.83
2019-02-23T10:08:19.679Z,14.60
2019-02-23T10:10:52.018Z,12.28
2019-02-23T10:13:23.178Z,6.90
2019-02-23T10:15:54.076Z,7.73
2019-02-23T10:18:24.774Z,9.73
2019-02-23T10:20:55.697Z,6.90
2019-02-23T10:23:26.253Z,14.17
2019-02-23T10:25:57.061Z,13.93
2019-02-23T10:28:27.866Z,13.53
2019-02-23T10:30:58.901Z,21.43
2019-02-23T10:33:29.635Z,11.40
2019-02-23T10:36:00.188Z,12.80
2019-02-23T10:38:30.823Z,6.83
2019-02-23T10:41:01.528Z,9.23
2019-02-23T10:43:32.265Z,11.70
2019-02-23T10:46:03.802Z,11.03
2019-02-23T10:48:34.764Z,10.33
2019-02-23T10:51:06.049Z,10.70
2019-02-23T10:53:37.398Z,6.33
2019-02-23T10:56:08.413Z,6.03
2019-02-23T10:58:39.098Z,5.13
2019-02-23T11:01:10.009Z,6.60
2019-02-23T11:03:40.907Z,7.53
2019-02-23T11:06:11.919Z,6.07
2019-02-23T11:08:42.603Z,5.97
2019-02-23T11:11:13.558Z,6.70
2019-02-23T11:13:44.359Z,8.57
2019-02-23T11:16:15.505Z,7.00
2019-02-23T11:18:46.274Z,10.33
2019-02-23T11:21:17.306Z,4.87
2019-02-23T11:23:48.411Z,9.00
2019-02-23T11:26:19.356Z,5.73
2019-02-23T11:28:50.077Z,16.13
2019-02-23T11:31:21.042Z,13.53
2019-02-23T11:33:51.722Z,6.03
2019-02-23T11:36:22.347Z,12.50
2019-02-23T11:38:53.037Z,8.20
2019-02-23T11:41:23.948Z,8.83
2019-02-23T11:43:54.517Z,9.50
2019-02-23T11:46:25.257Z,5.90
2019-02-23T11:48:55.899Z,4.83
2019-02-23T11:51:26.750Z,8.27
2019-02-23T11:53:58.333Z,4.43
2019-02-23T11:56:29.327Z,5.57
2019-02-23T11:59:00.074Z,7.40
2019-02-23T12:01:30.712Z,5.17
2019-02-23T12:04:01.517Z,9.30
2019-02-23T12:06:32.574Z,3.43
2019-02-23T12:09:03.461Z,10.80
2019-02-23T12:11:36.025Z,5.47
2019-02-23T12:14:06.850Z,10.10
2019-02-23T12:16:39.213Z,7.03
2019-02-23T12:19:10.313Z,8.10
2019-02-23T12:21:41.355Z,8.30
2019-02-23T12:24:12.447Z,10.97
2019-02-23T12:26:43.341Z,7.30
2019-02-23T12:29:14.278Z,7.70
2019-02-23T12:31:45.008Z,6.80
2019-02-23T12:34:16.795Z,5.70
2019-02-23T12:36:48.987Z,6.63
2019-02-23T12:39:19.536Z,7.53
2019-02-23T12:41:50.597Z,10.83
2019-02-23T12:44:21.571Z,7.50
2019-02-23T12:46:52.611Z,11.67
2019-02-23T12:49:23.395Z,5.20
2019-02-23T12:51:54.224Z,9.20
2019-02-23T12:54:26.082Z,8.77
2019-02-23T12:56:57.763Z,14.67
2019-02-23T12:59:28.342Z,8.03
2019-02-23T13:01:59.008Z,9.33
2019-02-23T13:04:29.728Z,8.97
2019-02-23T13:07:00.324Z,9.70
2019-02-23T13:09:36.417Z,5.37
2019-02-23T13:12:29.138Z,10.70
2019-02-23T13:15:27.391Z,11.77
2019-02-23T13:18:35.042Z,11.73
2019-02-23T13:21:14.818Z,14.13
2019-02-23T13:24:32.527Z,6.20
2019-02-23T13:27:21.415Z,7.90
2019-02-23T13:30:28.912Z,11.13
2019-02-23T13:33:20.817Z,29.47
2019-02-23T13:36:34.905Z,13.80
2019-02-23T13:39:29.255Z,7.53
2019-02-23T13:42:30.034Z,10.67
2019-02-23T13:45:38.137Z,8.60
2019-02-23T13:48:31.759Z,8.00
2019-02-23T13:51:46.737Z,5.33
2019-02-23T13:55:07.435Z,6.90
2019-02-23T13:58:13.287Z,9.07
2019-02-23T14:01:00.534Z,6.40
2019-02-23T14:04:12.047Z,7.90
2019-02-23T14:07:18.913Z,8.23
2019-02-23T14:10:45.530Z,11.30
2019-02-23T14:14:02.007Z,7.00
2019-02-23T14:17:06.874Z,6.17
2019-02-23T14:20:05.849Z,14.60
2019-02-23T14:23:13.423Z,8.03
2019-02-23T14:26:33.999Z,6.37
2019-02-23T14:29:32.899Z,6.70
2019-02-23T14:32:38.665Z,12.33
2019-02-23T14:35:53.285Z,6.00
2019-02-23T14:39:04.471Z,18.10
2019-02-23T14:42:17.365Z,4.83
2019-02-23T14:45:31.107Z,11.03
2019-02-23T14:48:20.348Z,8.07
2019-02-23T14:51:24.416Z,9.50
2019-02-23T14:54:17.429Z,7.27
2019-02-23T14:57:12.788Z,8.37
2019-02-23T15:00:26.763Z,8.00
2019-02-23T15:03:50.781Z,9.50
2019-02-23T15:07:03.231Z,8.93
2019-02-23T15:10:26.013Z,16.50
2019-02-23T15:13:39.499Z,7.80
2019-02-23T15:16:41.728Z,5.20
2019-02-23T15:19:42.491Z,8.83
2019-02-23T15:23:12.929Z,6.83
2019-02-23T15:26:25.644Z,12.50
2019-02-23T15:29:30.201Z,8.73
2019-02-23T15:32:12.612Z,10.90
2019-02-23T15:35:32.441Z,10.27
2019-02-23T15:38:53.571Z,12.40
2019-02-23T15:42:22.378Z,12.80
2019-02-23T15:45:34.248Z,9.57
2019-02-23T15:48:51.481Z,14.03
2019-02-23T15:51:22.677Z,7.23
2019-02-23T15:53:53.541Z,9.33
2019-02-23T15:56:24.244Z,9.07
2019-02-23T15:58:55.271Z,10.47
2019-02-23T16:01:26.223Z,15.23
2019-02-23T16:03:56.734Z,5.50
2019-02-23T16:06:27.808Z,12.07
2019-02-23T16:08:58.434Z,14.23
2019-02-23T16:11:29.245Z,11.20
2019-02-23T16:14:00.651Z,12.30
2019-02-23T16:16:32.108Z,15.07
2019-02-23T16:19:03.015Z,16.57
2019-02-23T16:21:34.055Z,13.03
2019-02-23T16:24:05.210Z,17.53
2019-02-23T16:26:37.215Z,20.07
2019-02-23T16:29:08.202Z,19.20
2019-02-23T16:31:39.120Z,22.10
2019-02-23T16:34:10.189Z,18.40
2019-02-23T16:36:41.169Z,24.17
2019-02-23T16:39:12.487Z,40.37
2019-02-23T16:41:44.187Z,56.80
2019-02-23T16:44:15.059Z,56.87
2019-02-23T16:46:46.632Z,41.70
2019-02-23T16:49:17.629Z,20.50
2019-02-23T16:51:48.600Z,13.57
2019-02-23T16:54:19.284Z,14.70
2019-02-23T16:56:50.293Z,18.93
2019-02-23T16:59:21.083Z,20.07
2019-02-23T17:01:52.374Z,31.20
2019-02-23T17:04:23.528Z,24.20
2019-02-23T17:06:55.701Z,18.83
2019-02-23T17:09:26.718Z,26.47
2019-02-23T17:11:57.538Z,27.53
2019-02-23T17:14:28.258Z,22.30
2019-02-23T17:16:59.011Z,26.13
2019-02-23T17:19:31.225Z,27.40
2019-02-23T17:22:02.050Z,28.27
2019-02-23T17:24:35.139Z,25.13
2019-02-23T17:27:06.395Z,23.23
2019-02-23T17:29:37.301Z,25.20
2019-02-23T17:32:08.293Z,39.13
2019-02-23T17:34:39.293Z,29.80
2019-02-23T17:37:10.257Z,34.50
2019-02-23T17:39:41.377Z,32.77
2019-02-23T17:42:12.270Z,31.37
2019-02-23T17:44:43.042Z,52.80
2019-02-23T17:47:14.076Z,31.27
2019-02-23T17:49:45.030Z,46.37
2019-02-23T17:52:16.884Z,53.17
2019-02-23T17:54:47.675Z,38.70
2019-02-23T17:57:19.993Z,45.07
2019-02-23T17:59:50.586Z,46.00
2019-02-23T18:02:21.345Z,55.13
2019-02-23T18:04:52.248Z,57.00
2019-02-23T18:07:23.023Z,61.10
2019-02-23T18:09:53.813Z,55.27
2019-02-23T18:12:24.415Z,50.40
2019-02-23T18:14:55.228Z,54.20
2019-02-23T18:17:26.220Z,51.37
2019-02-23T18:19:57.157Z,56.13
2019-02-23T18:22:27.990Z,72.30
2019-02-23T18:24:58.840Z,57.23
2019-02-23T18:27:29.571Z,59.63
2019-02-23T18:30:09.454Z,50.97
2019-02-23T18:32:34.715Z,62.93
2019-02-23T18:35:06.249Z,64.23
2019-02-23T18:37:37.055Z,56.20
2019-02-23T18:40:08.525Z,65.90
2019-02-23T18:42:39.596Z,69.30
2019-02-23T18:45:11.013Z,70.57
2019-02-23T18:47:41.804Z,65.30
2019-02-23T18:50:12.943Z,92.93
2019-02-23T18:52:43.966Z,85.70
2019-02-23T18:55:14.874Z,70.30
2019-02-23T18:57:45.871Z,70.40
2019-02-23T19:00:24.156Z,57.17
2019-02-23T19:02:50.151Z,66.57
2019-02-23T19:05:20.933Z,64.93
2019-02-23T19:07:51.643Z,54.23
2019-02-23T19:10:22.460Z,51.43
2019-02-23T19:12:53.717Z,55.50
2019-02-23T19:15:24.515Z,47.57
2019-02-23T19:17:55.334Z,50.93
2019-02-23T19:20:27.190Z,58.53
2019-02-23T19:22:58.304Z,50.60
2019-02-23T19:25:29.659Z,59.37
2019-02-23T19:28:00.467Z,54.70
2019-02-23T19:30:31.383Z,50.50
2019-02-23T19:33:02.269Z,63.30
2019-02-23T19:35:33.056Z,112.73
2019-02-23T19:38:04.093Z,124.30
2019-02-23T19:40:34.741Z,74.80
2019-02-23T19:43:05.348Z,75.90
2019-02-23T19:45:36.347Z,77.50
2019-02-23T19:48:08.245Z,84.07
2019-02-23T19:50:43.038Z,65.93
2019-02-23T19:53:13.982Z,78.07
2019-02-23T19:55:45.119Z,134.33
2019-02-23T19:58:17.015Z,153.07
2019-02-23T20:00:48.611Z,73.93
2019-02-23T20:03:19.614Z,129.60
2019-02-23T20:05:51.046Z,100.17
2019-02-23T20:08:22.208Z,95.73
2019-02-23T20:10:52.977Z,99.43
2019-02-23T20:13:24.234Z,83.77
2019-02-23T20:15:54.862Z,88.67
2019-02-23T20:18:25.930Z,115.90
2019-02-23T20:20:57.157Z,103.43
2019-02-23T20:23:28.047Z,96.30
2019-02-23T20:25:59.289Z,74.70
2019-02-23T20:28:30.740Z,74.90
2019-02-23T20:31:02.499Z,88.97
2019-02-23T20:33:33.412Z,102.90
2019-02-23T20:36:04.716Z,110.47
2019-02-23T20:38:35.599Z,105.30
2019-02-23T20:41:06.511Z,108.20
2019-02-23T20:43:37.481Z,98.63
2019-02-23T20:46:08.802Z,113.17
2019-02-23T20:48:40.014Z,113.20
2019-02-23T20:51:11.459Z,90.07
2019-02-23T20:53:42.816Z,84.77
2019-02-23T20:56:13.748Z,82.50
2019-02-23T20:58:44.864Z,92.10
2019-02-23T21:01:15.947Z,74.57
2019-02-23T21:03:46.983Z,83.47
2019-02-23T21:06:18.226Z,81.00
2019-02-23T21:08:49.060Z,81.70
2019-02-23T21:11:20.072Z,63.83
2019-02-23T21:13:51.678Z,75.27
2019-02-23T21:16:22.387Z,68.03
2019-02-23T21:18:53.190Z,74.63
2019-02-23T21:21:23.828Z,84.10
2019-02-23T21:23:54.725Z,85.67
2019-02-23T21:26:25.931Z,80.23
2019-02-23T21:28:56.913Z,159.63
2019-02-23T21:31:28.022Z,115.70
2019-02-23T21:33:58.935Z,116.43
2019-02-23T21:36:30.111Z,97.63
2019-02-23T21:39:01.186Z,106.80
2019-02-23T21:41:34.860Z,87.10
2019-02-23T21:44:05.671Z,79.87
2019-02-23T21:46:36.293Z,87.20
2019-02-23T21:49:07.390Z,86.30
2019-02-23T21:51:38.201Z,78.57
2019-02-23T21:54:10.402Z,85.10
2019-02-23T21:56:42.566Z,68.80
2019-02-23T21:59:13.883Z,76.33
2019-02-23T22:01:45.359Z,84.97
2019-02-23T22:04:17.342Z,82.87
2019-02-23T22:06:48.490Z,94.40
2019-02-23T22:09:19.694Z,101.80
2019-02-23T22:11:50.798Z,92.53
2019-02-23T22:14:22.068Z,100.63
2019-02-23T22:16:53.337Z,101.63
2019-02-23T22:19:24.172Z,109.73
2019-02-23T22:21:55.452Z,103.50
2019-02-23T22:24:26.573Z,112.37
2019-02-23T22:26:57.807Z,156.53
2019-02-23T22:29:31.065Z,123.03
2019-02-23T22:32:03.453Z,172.80
2019-02-23T22:34:34.906Z,133.40
2019-02-23T22:37:06.050Z,120.03
2019-02-23T22:39:37.229Z,126.00
2019-02-23T22:42:08.402Z,96.07
2019-02-23T22:44:39.648Z,103.73
2019-02-23T22:47:11.084Z,99.83
2019-02-23T22:49:42.729Z,110.43
2019-02-23T22:52:14.142Z,96.90
2019-02-23T22:54:45.305Z,84.07
2019-02-23T22:57:16.437Z,103.80
2019-02-23T22:59:47.242Z,93.00
2019-02-23T23:02:18.508Z,87.70
2019-02-23T23:04:49.608Z,93.03
2019-02-23T23:07:20.491Z,97.83
2019-02-23T23:09:51.883Z,90.83
2019-02-23T23:12:22.947Z,108.27
2019-02-23T23:14:54.267Z,105.03
2019-02-23T23:17:25.706Z,106.87
2019-02-23T23:19:57.138Z,101.87
2019-02-23T23:22:28.338Z,102.33
2019-02-23T23:24:59.657Z,92.20
2019-02-23T23:27:30.799Z,92.43
2019-02-23T23:30:02.450Z,97.87
2019-02-23T23:32:34.513Z,113.80
2019-02-23T23:35:05.905Z,104.50
2019-02-23T23:37:36.949Z,105.63
2019-02-23T23:40:08.323Z,115.80
2019-02-23T23:42:40.061Z,114.30
2019-02-23T23:45:11.015Z,119.97
2019-02-23T23:47:42.042Z,123.77
2019-02-23T23:50:13.143Z,110.17
2019-02-23T23:52:43.975Z,98.00
2019-02-23T23:55:14.951Z,97.43
2019-02-23T23:57:45.613Z,99.23
